Terminal Aerodrome Forecast
Issued by NWS Sterling, VA

Current Version | Previous Version | Text Only | Print | Product List | Glossary Off
Versions: 1 2 3 4 5 6 7 8 9 10 11 12 13 14 15 16 17 18 19 20 21 22 23 24

186
FTUS41 KLWX 191123
TAFMRB
TAF
KMRB 191123Z 1912/2012 29004KT P6SM BKN025
     FM191600 29005KT P6SM SCT030 SCT250
     FM192100 30004KT P6SM FEW200
     FM200900 00000KT P6SM BKN045=

USA.gov is the U.S. government's official web portal to all federal, state and local government web resources and services.